sensor_id;sensor_type;location;lat;lon;timestamp;P1;durP1;ratioP1;P2;durP2;ratioP2
4448;SDS011;2237;51.870;6.160;2023-04-06T00:01:51;11.10;;;4.57;;
4448;SDS011;2237;51.870;6.160;2023-04-06T00:04:17;8.55;;;4.55;;
4448;SDS011;2237;51.870;6.160;2023-04-06T00:06:44;8.05;;;4.57;;
4448;SDS011;2237;51.870;6.160;2023-04-06T00:09:10;8.80;;;4.53;;
4448;SDS011;2237;51.870;6.160;2023-04-06T00:11:37;8.43;;;4.35;;
4448;SDS011;2237;51.870;6.160;2023-04-06T00:14:03;7.35;;;3.97;;
4448;SDS011;2237;51.870;6.160;2023-04-06T00:16:30;12.48;;;4.40;;
4448;SDS011;2237;51.870;6.160;2023-04-06T00:18:56;8.57;;;4.65;;
4448;SDS011;2237;51.870;6.160;2023-04-06T00:21:23;9.20;;;4.95;;
4448;SDS011;2237;51.870;6.160;2023-04-06T00:23:50;8.18;;;4.05;;
4448;SDS011;2237;51.870;6.160;2023-04-06T00:26:16;8.07;;;4.20;;
4448;SDS011;2237;51.870;6.160;2023-04-06T00:28:43;8.45;;;4.32;;
4448;SDS011;2237;51.870;6.160;2023-04-06T00:31:09;8.70;;;4.05;;
4448;SDS011;2237;51.870;6.160;2023-04-06T00:33:35;9.77;;;4.68;;
4448;SDS011;2237;51.870;6.160;2023-04-06T00:36:02;11.80;;;4.45;;
4448;SDS011;2237;51.870;6.160;2023-04-06T00:38:29;10.15;;;4.22;;
4448;SDS011;2237;51.870;6.160;2023-04-06T00:40:55;7.40;;;4.00;;
4448;SDS011;2237;51.870;6.160;2023-04-06T00:43:22;13.45;;;4.40;;
4448;SDS011;2237;51.870;6.160;2023-04-06T00:45:48;11.13;;;4.38;;
4448;SDS011;2237;51.870;6.160;2023-04-06T00:48:15;7.53;;;3.72;;
4448;SDS011;2237;51.870;6.160;2023-04-06T00:50:42;8.35;;;3.90;;
4448;SDS011;2237;51.870;6.160;2023-04-06T00:53:09;8.98;;;4.45;;
4448;SDS011;2237;51.870;6.160;2023-04-06T00:55:35;7.63;;;3.90;;
4448;SDS011;2237;51.870;6.160;2023-04-06T00:58:02;9.40;;;3.95;;
4448;SDS011;2237;51.870;6.160;2023-04-06T01:00:29;8.30;;;3.67;;
4448;SDS011;2237;51.870;6.160;2023-04-06T01:02:56;12.35;;;4.72;;
4448;SDS011;2237;51.870;6.160;2023-04-06T01:05:23;10.63;;;4.38;;
4448;SDS011;2237;51.870;6.160;2023-04-06T01:07:49;10.38;;;4.30;;
4448;SDS011;2237;51.870;6.160;2023-04-06T01:10:22;10.95;;;4.53;;
4448;SDS011;2237;51.870;6.160;2023-04-06T01:12:52;11.32;;;4.40;;
4448;SDS011;2237;51.870;6.160;2023-04-06T01:15:19;8.48;;;4.32;;
4448;SDS011;2237;51.870;6.160;2023-04-06T01:17:47;9.45;;;4.93;;
4448;SDS011;2237;51.870;6.160;2023-04-06T01:20:13;10.88;;;4.53;;
4448;SDS011;2237;51.870;6.160;2023-04-06T01:22:40;9.05;;;4.22;;
4448;SDS011;2237;51.870;6.160;2023-04-06T01:25:07;11.18;;;4.30;;
4448;SDS011;2237;51.870;6.160;2023-04-06T01:27:34;9.73;;;4.72;;
4448;SDS011;2237;51.870;6.160;2023-04-06T01:30:00;9.82;;;4.70;;
4448;SDS011;2237;51.870;6.160;2023-04-06T01:32:27;10.05;;;4.35;;
4448;SDS011;2237;51.870;6.160;2023-04-06T01:34:53;9.63;;;5.18;;
4448;SDS011;2237;51.870;6.160;2023-04-06T01:37:20;11.05;;;4.93;;
4448;SDS011;2237;51.870;6.160;2023-04-06T01:39:47;10.43;;;4.22;;
4448;SDS011;2237;51.870;6.160;2023-04-06T01:42:13;9.52;;;4.63;;
4448;SDS011;2237;51.870;6.160;2023-04-06T01:44:40;10.30;;;4.05;;
4448;SDS011;2237;51.870;6.160;2023-04-06T01:47:06;11.68;;;4.47;;
4448;SDS011;2237;51.870;6.160;2023-04-06T01:49:33;10.63;;;5.25;;
4448;SDS011;2237;51.870;6.160;2023-04-06T01:51:59;8.88;;;5.05;;
4448;SDS011;2237;51.870;6.160;2023-04-06T01:54:26;11.20;;;4.28;;
4448;SDS011;2237;51.870;6.160;2023-04-06T01:56:52;8.50;;;4.03;;
4448;SDS011;2237;51.870;6.160;2023-04-06T01:59:19;9.40;;;3.92;;
4448;SDS011;2237;51.870;6.160;2023-04-06T02:01:45;9.73;;;4.55;;
4448;SDS011;2237;51.870;6.160;2023-04-06T02:04:12;8.82;;;4.45;;
4448;SDS011;2237;51.870;6.160;2023-04-06T02:06:39;7.03;;;3.60;;
4448;SDS011;2237;51.870;6.160;2023-04-06T02:09:06;9.13;;;4.72;;
4448;SDS011;2237;51.870;6.160;2023-04-06T02:11:33;9.25;;;4.53;;
4448;SDS011;2237;51.870;6.160;2023-04-06T02:13:59;11.35;;;4.55;;
4448;SDS011;2237;51.870;6.160;2023-04-06T02:16:27;11.18;;;4.80;;
4448;SDS011;2237;51.870;6.160;2023-04-06T02:18:53;11.05;;;4.82;;
4448;SDS011;2237;51.870;6.160;2023-04-06T02:21:19;8.85;;;4.47;;
4448;SDS011;2237;51.870;6.160;2023-04-06T02:23:46;9.55;;;4.38;;
4448;SDS011;2237;51.870;6.160;2023-04-06T02:26:13;9.60;;;4.53;;
4448;SDS011;2237;51.870;6.160;2023-04-06T02:28:40;12.68;;;5.38;;
4448;SDS011;2237;51.870;6.160;2023-04-06T02:31:07;12.00;;;4.43;;
4448;SDS011;2237;51.870;6.160;2023-04-06T02:33:33;10.45;;;5.00;;
4448;SDS011;2237;51.870;6.160;2023-04-06T02:36:00;9.52;;;4.40;;
4448;SDS011;2237;51.870;6.160;2023-04-06T02:38:26;9.38;;;4.70;;
4448;SDS011;2237;51.870;6.160;2023-04-06T02:40:53;10.63;;;4.57;;
4448;SDS011;2237;51.870;6.160;2023-04-06T02:43:19;9.20;;;4.15;;
4448;SDS011;2237;51.870;6.160;2023-04-06T02:45:45;11.50;;;5.03;;
4448;SDS011;2237;51.870;6.160;2023-04-06T02:48:12;11.70;;;4.95;;
4448;SDS011;2237;51.870;6.160;2023-04-06T02:50:38;9.60;;;4.82;;
4448;SDS011;2237;51.870;6.160;2023-04-06T02:53:05;10.25;;;4.68;;
4448;SDS011;2237;51.870;6.160;2023-04-06T02:55:32;11.10;;;4.45;;
4448;SDS011;2237;51.870;6.160;2023-04-06T02:57:58;11.43;;;4.90;;
4448;SDS011;2237;51.870;6.160;2023-04-06T03:00:25;11.05;;;4.55;;
4448;SDS011;2237;51.870;6.160;2023-04-06T03:02:52;9.95;;;4.57;;
4448;SDS011;2237;51.870;6.160;2023-04-06T03:05:18;12.77;;;4.57;;
4448;SDS011;2237;51.870;6.160;2023-04-06T03:07:45;8.95;;;4.53;;
4448;SDS011;2237;51.870;6.160;2023-04-06T03:10:11;11.88;;;4.55;;
4448;SDS011;2237;51.870;6.160;2023-04-06T03:12:38;15.48;;;5.00;;
4448;SDS011;2237;51.870;6.160;2023-04-06T03:15:04;11.25;;;4.63;;
4448;SDS011;2237;51.870;6.160;2023-04-06T03:17:31;9.68;;;4.90;;
4448;SDS011;2237;51.870;6.160;2023-04-06T03:19:57;12.77;;;5.70;;
4448;SDS011;2237;51.870;6.160;2023-04-06T03:22:24;10.90;;;4.47;;
4448;SDS011;2237;51.870;6.160;2023-04-06T03:24:50;13.85;;;4.68;;
4448;SDS011;2237;51.870;6.160;2023-04-06T03:27:17;9.50;;;4.88;;
4448;SDS011;2237;51.870;6.160;2023-04-06T03:29:43;13.18;;;4.57;;
4448;SDS011;2237;51.870;6.160;2023-04-06T03:32:09;10.10;;;4.10;;
4448;SDS011;2237;51.870;6.160;2023-04-06T03:34:36;11.95;;;4.82;;
4448;SDS011;2237;51.870;6.160;2023-04-06T03:37:03;10.55;;;5.25;;
4448;SDS011;2237;51.870;6.160;2023-04-06T03:39:36;11.20;;;4.30;;
4448;SDS011;2237;51.870;6.160;2023-04-06T03:42:02;10.77;;;5.38;;
4448;SDS011;2237;51.870;6.160;2023-04-06T03:44:29;11.13;;;5.05;;
4448;SDS011;2237;51.870;6.160;2023-04-06T03:46:55;11.15;;;4.93;;
4448;SDS011;2237;51.870;6.160;2023-04-06T03:49:22;11.75;;;4.55;;
4448;SDS011;2237;51.870;6.160;2023-04-06T03:51:48;11.93;;;5.43;;
4448;SDS011;2237;51.870;6.160;2023-04-06T03:54:15;12.55;;;5.15;;
4448;SDS011;2237;51.870;6.160;2023-04-06T03:56:41;9.48;;;5.00;;
4448;SDS011;2237;51.870;6.160;2023-04-06T03:59:08;13.25;;;5.30;;
4448;SDS011;2237;51.870;6.160;2023-04-06T04:01:35;12.60;;;5.40;;
4448;SDS011;2237;51.870;6.160;2023-04-06T04:04:01;9.23;;;4.50;;
4448;SDS011;2237;51.870;6.160;2023-04-06T04:06:28;10.93;;;5.03;;
4448;SDS011;2237;51.870;6.160;2023-04-06T04:08:54;12.77;;;5.30;;
4448;SDS011;2237;51.870;6.160;2023-04-06T04:11:21;12.25;;;5.88;;
4448;SDS011;2237;51.870;6.160;2023-04-06T04:13:47;12.07;;;5.95;;
4448;SDS011;2237;51.870;6.160;2023-04-06T04:16:14;10.13;;;5.63;;
4448;SDS011;2237;51.870;6.160;2023-04-06T04:18:40;9.77;;;5.35;;
4448;SDS011;2237;51.870;6.160;2023-04-06T04:21:09;11.68;;;5.20;;
4448;SDS011;2237;51.870;6.160;2023-04-06T04:23:36;11.30;;;5.45;;
4448;SDS011;2237;51.870;6.160;2023-04-06T04:26:02;14.10;;;5.20;;
4448;SDS011;2237;51.870;6.160;2023-04-06T04:28:29;13.82;;;5.30;;
4448;SDS011;2237;51.870;6.160;2023-04-06T04:30:56;27.42;;;5.25;;
4448;SDS011;2237;51.870;6.160;2023-04-06T04:33:22;13.63;;;5.63;;
4448;SDS011;2237;51.870;6.160;2023-04-06T04:35:49;9.75;;;5.05;;
4448;SDS011;2237;51.870;6.160;2023-04-06T04:38:15;13.85;;;5.30;;
4448;SDS011;2237;51.870;6.160;2023-04-06T04:40:42;64.95;;;12.75;;
4448;SDS011;2237;51.870;6.160;2023-04-06T04:43:08;12.20;;;5.20;;
4448;SDS011;2237;51.870;6.160;2023-04-06T04:45:34;14.23;;;5.80;;
4448;SDS011;2237;51.870;6.160;2023-04-06T04:48:01;14.18;;;5.70;;
4448;SDS011;2237;51.870;6.160;2023-04-06T04:50:28;12.25;;;6.07;;
4448;SDS011;2237;51.870;6.160;2023-04-06T04:52:54;10.63;;;5.10;;
4448;SDS011;2237;51.870;6.160;2023-04-06T04:55:21;14.20;;;6.10;;
4448;SDS011;2237;51.870;6.160;2023-04-06T04:57:47;11.25;;;5.18;;
4448;SDS011;2237;51.870;6.160;2023-04-06T05:00:14;13.45;;;6.07;;
4448;SDS011;2237;51.870;6.160;2023-04-06T05:02:41;12.98;;;5.35;;
4448;SDS011;2237;51.870;6.160;2023-04-06T05:05:07;10.45;;;5.32;;
4448;SDS011;2237;51.870;6.160;2023-04-06T05:07:34;12.48;;;6.35;;
4448;SDS011;2237;51.870;6.160;2023-04-06T05:10:01;11.40;;;5.47;;
4448;SDS011;2237;51.870;6.160;2023-04-06T05:12:27;14.45;;;6.10;;
4448;SDS011;2237;51.870;6.160;2023-04-06T05:14:54;16.13;;;6.03;;
4448;SDS011;2237;51.870;6.160;2023-04-06T05:17:20;14.18;;;5.45;;
4448;SDS011;2237;51.870;6.160;2023-04-06T05:19:47;13.88;;;5.55;;
4448;SDS011;2237;51.870;6.160;2023-04-06T05:22:13;15.98;;;5.75;;
4448;SDS011;2237;51.870;6.160;2023-04-06T05:24:42;9.93;;;4.55;;
4448;SDS011;2237;51.870;6.160;2023-04-06T05:27:08;13.80;;;6.32;;
4448;SDS011;2237;51.870;6.160;2023-04-06T05:29:35;9.80;;;5.47;;
4448;SDS011;2237;51.870;6.160;2023-04-06T05:32:02;15.35;;;6.47;;
4448;SDS011;2237;51.870;6.160;2023-04-06T05:34:28;12.85;;;6.22;;
4448;SDS011;2237;51.870;6.160;2023-04-06T05:36:55;25.23;;;6.65;;
4448;SDS011;2237;51.870;6.160;2023-04-06T05:39:21;14.93;;;5.95;;
4448;SDS011;2237;51.870;6.160;2023-04-06T05:41:48;11.10;;;5.20;;
4448;SDS011;2237;51.870;6.160;2023-04-06T05:44:15;16.15;;;6.80;;
4448;SDS011;2237;51.870;6.160;2023-04-06T05:46:42;18.60;;;6.65;;
4448;SDS011;2237;51.870;6.160;2023-04-06T05:49:08;16.42;;;5.97;;
4448;SDS011;2237;51.870;6.160;2023-04-06T05:51:35;10.45;;;5.82;;
4448;SDS011;2237;51.870;6.160;2023-04-06T05:54:01;13.35;;;6.60;;
4448;SDS011;2237;51.870;6.160;2023-04-06T05:56:28;12.80;;;6.32;;
4448;SDS011;2237;51.870;6.160;2023-04-06T05:58:56;17.40;;;6.53;;
4448;SDS011;2237;51.870;6.160;2023-04-06T06:01:22;14.38;;;6.55;;
4448;SDS011;2237;51.870;6.160;2023-04-06T06:03:49;9.98;;;5.13;;
4448;SDS011;2237;51.870;6.160;2023-04-06T06:06:15;11.93;;;5.93;;
4448;SDS011;2237;51.870;6.160;2023-04-06T06:08:42;13.27;;;6.40;;
4448;SDS011;2237;51.870;6.160;2023-04-06T06:11:08;9.32;;;5.15;;
4448;SDS011;2237;51.870;6.160;2023-04-06T06:13:35;10.95;;;5.55;;
4448;SDS011;2237;51.870;6.160;2023-04-06T06:16:01;19.25;;;7.03;;
4448;SDS011;2237;51.870;6.160;2023-04-06T06:18:31;15.02;;;6.90;;
4448;SDS011;2237;51.870;6.160;2023-04-06T06:20:58;11.77;;;5.57;;
4448;SDS011;2237;51.870;6.160;2023-04-06T06:23:24;12.98;;;6.32;;
4448;SDS011;2237;51.870;6.160;2023-04-06T06:25:51;16.33;;;7.68;;
4448;SDS011;2237;51.870;6.160;2023-04-06T06:28:17;14.70;;;6.57;;
4448;SDS011;2237;51.870;6.160;2023-04-06T06:30:44;14.50;;;6.55;;
4448;SDS011;2237;51.870;6.160;2023-04-06T06:33:10;10.32;;;5.05;;
4448;SDS011;2237;51.870;6.160;2023-04-06T06:35:37;16.30;;;6.70;;
4448;SDS011;2237;51.870;6.160;2023-04-06T06:38:03;16.58;;;6.82;;
4448;SDS011;2237;51.870;6.160;2023-04-06T06:40:30;20.23;;;7.38;;
4448;SDS011;2237;51.870;6.160;2023-04-06T06:42:56;16.17;;;7.53;;
4448;SDS011;2237;51.870;6.160;2023-04-06T06:45:23;13.15;;;6.55;;
4448;SDS011;2237;51.870;6.160;2023-04-06T06:47:51;17.98;;;6.28;;
4448;SDS011;2237;51.870;6.160;2023-04-06T06:50:20;16.70;;;7.78;;
4448;SDS011;2237;51.870;6.160;2023-04-06T06:52:47;23.90;;;7.82;;
4448;SDS011;2237;51.870;6.160;2023-04-06T06:55:13;14.85;;;7.13;;
4448;SDS011;2237;51.870;6.160;2023-04-06T06:57:41;19.35;;;7.85;;
4448;SDS011;2237;51.870;6.160;2023-04-06T07:00:08;14.88;;;7.15;;
4448;SDS011;2237;51.870;6.160;2023-04-06T07:02:38;15.30;;;7.95;;
4448;SDS011;2237;51.870;6.160;2023-04-06T07:05:06;16.83;;;7.55;;
4448;SDS011;2237;51.870;6.160;2023-04-06T07:07:52;15.65;;;7.30;;
4448;SDS011;2237;51.870;6.160;2023-04-06T07:10:19;20.40;;;7.07;;
4448;SDS011;2237;51.870;6.160;2023-04-06T07:12:46;17.63;;;7.72;;
4448;SDS011;2237;51.870;6.160;2023-04-06T07:15:12;17.25;;;7.68;;
4448;SDS011;2237;51.870;6.160;2023-04-06T07:17:39;14.73;;;7.07;;
4448;SDS011;2237;51.870;6.160;2023-04-06T07:20:07;19.73;;;7.72;;
4448;SDS011;2237;51.870;6.160;2023-04-06T07:22:34;18.55;;;7.50;;
4448;SDS011;2237;51.870;6.160;2023-04-06T07:25:01;17.13;;;7.88;;
4448;SDS011;2237;51.870;6.160;2023-04-06T07:27:27;18.33;;;7.90;;
4448;SDS011;2237;51.870;6.160;2023-04-06T07:29:53;17.08;;;8.57;;
4448;SDS011;2237;51.870;6.160;2023-04-06T07:32:20;21.38;;;7.88;;
4448;SDS011;2237;51.870;6.160;2023-04-06T07:34:46;21.02;;;9.15;;
4448;SDS011;2237;51.870;6.160;2023-04-06T07:37:13;21.08;;;8.05;;
4448;SDS011;2237;51.870;6.160;2023-04-06T07:39:39;16.77;;;7.40;;
4448;SDS011;2237;51.870;6.160;2023-04-06T07:42:06;18.25;;;8.95;;
4448;SDS011;2237;51.870;6.160;2023-04-06T07:44:32;15.77;;;8.20;;
4448;SDS011;2237;51.870;6.160;2023-04-06T07:46:59;20.88;;;8.07;;
4448;SDS011;2237;51.870;6.160;2023-04-06T07:49:26;19.02;;;9.18;;
4448;SDS011;2237;51.870;6.160;2023-04-06T07:51:53;12.10;;;6.80;;
4448;SDS011;2237;51.870;6.160;2023-04-06T07:54:19;18.33;;;8.63;;
4448;SDS011;2237;51.870;6.160;2023-04-06T07:56:46;18.38;;;7.35;;
4448;SDS011;2237;51.870;6.160;2023-04-06T07:59:13;15.45;;;7.47;;
4448;SDS011;2237;51.870;6.160;2023-04-06T08:01:39;15.40;;;8.10;;
4448;SDS011;2237;51.870;6.160;2023-04-06T08:04:06;17.85;;;8.57;;
4448;SDS011;2237;51.870;6.160;2023-04-06T08:06:33;18.67;;;8.65;;
4448;SDS011;2237;51.870;6.160;2023-04-06T08:09:00;14.05;;;7.22;;
4448;SDS011;2237;51.870;6.160;2023-04-06T08:11:27;19.00;;;8.43;;
4448;SDS011;2237;51.870;6.160;2023-04-06T08:13:54;18.80;;;9.07;;
4448;SDS011;2237;51.870;6.160;2023-04-06T08:16:23;17.63;;;8.15;;
4448;SDS011;2237;51.870;6.160;2023-04-06T08:18:50;16.92;;;8.95;;
4448;SDS011;2237;51.870;6.160;2023-04-06T08:21:16;19.48;;;9.10;;
4448;SDS011;2237;51.870;6.160;2023-04-06T08:23:43;15.50;;;7.85;;
4448;SDS011;2237;51.870;6.160;2023-04-06T08:26:09;26.63;;;9.05;;
4448;SDS011;2237;51.870;6.160;2023-04-06T08:28:36;18.55;;;8.02;;
4448;SDS011;2237;51.870;6.160;2023-04-06T08:31:03;17.88;;;9.00;;
4448;SDS011;2237;51.870;6.160;2023-04-06T08:33:33;19.63;;;7.93;;
4448;SDS011;2237;51.870;6.160;2023-04-06T08:36:11;18.30;;;9.80;;
4448;SDS011;2237;51.870;6.160;2023-04-06T08:38:39;21.63;;;9.13;;
4448;SDS011;2237;51.870;6.160;2023-04-06T08:41:12;18.67;;;8.63;;
4448;SDS011;2237;51.870;6.160;2023-04-06T08:43:46;21.30;;;9.40;;
4448;SDS011;2237;51.870;6.160;2023-04-06T08:46:15;19.55;;;7.65;;
4448;SDS011;2237;51.870;6.160;2023-04-06T08:48:42;14.38;;;8.65;;
4448;SDS011;2237;51.870;6.160;2023-04-06T08:51:09;16.98;;;9.00;;
4448;SDS011;2237;51.870;6.160;2023-04-06T08:53:36;16.38;;;9.50;;
4448;SDS011;2237;51.870;6.160;2023-04-06T08:56:03;18.45;;;8.77;;
4448;SDS011;2237;51.870;6.160;2023-04-06T08:58:35;24.83;;;8.85;;
4448;SDS011;2237;51.870;6.160;2023-04-06T09:01:08;18.98;;;8.70;;
4448;SDS011;2237;51.870;6.160;2023-04-06T09:03:38;18.45;;;7.97;;
4448;SDS011;2237;51.870;6.160;2023-04-06T09:06:06;18.45;;;9.38;;
4448;SDS011;2237;51.870;6.160;2023-04-06T09:08:34;18.65;;;8.13;;
4448;SDS011;2237;51.870;6.160;2023-04-06T09:11:02;20.60;;;8.82;;
4448;SDS011;2237;51.870;6.160;2023-04-06T09:13:29;22.25;;;9.10;;
4448;SDS011;2237;51.870;6.160;2023-04-06T09:16:02;17.50;;;8.20;;
4448;SDS011;2237;51.870;6.160;2023-04-06T09:18:33;13.57;;;6.97;;
4448;SDS011;2237;51.870;6.160;2023-04-06T09:21:00;16.95;;;8.77;;
4448;SDS011;2237;51.870;6.160;2023-04-06T09:23:29;15.73;;;8.00;;
4448;SDS011;2237;51.870;6.160;2023-04-06T09:28:45;17.27;;;7.90;;
4448;SDS011;2237;51.870;6.160;2023-04-06T09:31:13;14.88;;;7.95;;
4448;SDS011;2237;51.870;6.160;2023-04-06T09:33:43;17.83;;;8.73;;
4448;SDS011;2237;51.870;6.160;2023-04-06T09:36:11;14.37;;;6.83;;
4448;SDS011;2237;51.870;6.160;2023-04-06T09:38:38;17.08;;;7.93;;
4448;SDS011;2237;51.870;6.160;2023-04-06T09:41:24;18.52;;;8.65;;
4448;SDS011;2237;51.870;6.160;2023-04-06T09:43:52;18.10;;;7.82;;
4448;SDS011;2237;51.870;6.160;2023-04-06T09:46:30;17.63;;;8.95;;
4448;SDS011;2237;51.870;6.160;2023-04-06T09:49:16;17.92;;;8.27;;
4448;SDS011;2237;51.870;6.160;2023-04-06T09:51:45;18.98;;;9.25;;
4448;SDS011;2237;51.870;6.160;2023-04-06T09:56:47;17.77;;;8.48;;
4448;SDS011;2237;51.870;6.160;2023-04-06T09:59:21;17.23;;;8.52;;
4448;SDS011;2237;51.870;6.160;2023-04-06T10:01:57;17.98;;;8.77;;
4448;SDS011;2237;51.870;6.160;2023-04-06T10:04:36;15.95;;;8.65;;
4448;SDS011;2237;51.870;6.160;2023-04-06T10:07:09;12.75;;;7.72;;
4448;SDS011;2237;51.870;6.160;2023-04-06T10:09:37;15.43;;;8.15;;
4448;SDS011;2237;51.870;6.160;2023-04-06T10:12:04;17.65;;;7.65;;
4448;SDS011;2237;51.870;6.160;2023-04-06T10:14:35;21.95;;;9.80;;
4448;SDS011;2237;51.870;6.160;2023-04-06T10:20:13;20.45;;;9.80;;
4448;SDS011;2237;51.870;6.160;2023-04-06T10:22:26;17.67;;;8.07;;
4448;SDS011;2237;51.870;6.160;2023-04-06T10:25:00;19.30;;;9.55;;
4448;SDS011;2237;51.870;6.160;2023-04-06T10:27:29;13.77;;;7.25;;
4448;SDS011;2237;51.870;6.160;2023-04-06T10:30:03;16.25;;;8.07;;
4448;SDS011;2237;51.870;6.160;2023-04-06T10:32:32;16.45;;;8.60;;
4448;SDS011;2237;51.870;6.160;2023-04-06T10:35:06;17.40;;;7.65;;
4448;SDS011;2237;51.870;6.160;2023-04-06T10:40:28;19.15;;;9.07;;
4448;SDS011;2237;51.870;6.160;2023-04-06T10:42:55;16.70;;;8.23;;
4448;SDS011;2237;51.870;6.160;2023-04-06T10:45:32;16.75;;;8.02;;
4448;SDS011;2237;51.870;6.160;2023-04-06T10:47:59;17.02;;;8.27;;
4448;SDS011;2237;51.870;6.160;2023-04-06T10:50:25;16.52;;;8.52;;
4448;SDS011;2237;51.870;6.160;2023-04-06T10:53:02;16.23;;;8.13;;
4448;SDS011;2237;51.870;6.160;2023-04-06T10:55:29;18.95;;;9.05;;
4448;SDS011;2237;51.870;6.160;2023-04-06T10:57:55;21.40;;;7.97;;
4448;SDS011;2237;51.870;6.160;2023-04-06T11:00:22;18.80;;;9.00;;
4448;SDS011;2237;51.870;6.160;2023-04-06T11:02:48;16.27;;;7.60;;
4448;SDS011;2237;51.870;6.160;2023-04-06T11:05:15;18.13;;;6.95;;
4448;SDS011;2237;51.870;6.160;2023-04-06T11:07:42;17.38;;;7.95;;
4448;SDS011;2237;51.870;6.160;2023-04-06T11:10:08;17.08;;;8.45;;
4448;SDS011;2237;51.870;6.160;2023-04-06T11:12:42;14.57;;;7.07;;
4448;SDS011;2237;51.870;6.160;2023-04-06T11:15:09;14.73;;;7.47;;
4448;SDS011;2237;51.870;6.160;2023-04-06T11:17:36;15.63;;;7.20;;
4448;SDS011;2237;51.870;6.160;2023-04-06T11:20:03;9.90;;;3.90;;
4448;SDS011;2237;51.870;6.160;2023-04-06T11:22:30;13.57;;;6.60;;
4448;SDS011;2237;51.870;6.160;2023-04-06T11:25:07;11.45;;;5.93;;
4448;SDS011;2237;51.870;6.160;2023-04-06T11:27:35;12.50;;;5.95;;
4448;SDS011;2237;51.870;6.160;2023-04-06T11:30:02;12.30;;;6.00;;
4448;SDS011;2237;51.870;6.160;2023-04-06T11:32:29;14.20;;;6.18;;
4448;SDS011;2237;51.870;6.160;2023-04-06T11:34:57;14.73;;;6.80;;
4448;SDS011;2237;51.870;6.160;2023-04-06T11:37:25;12.88;;;5.90;;
4448;SDS011;2237;51.870;6.160;2023-04-06T11:39:54;12.75;;;5.70;;
4448;SDS011;2237;51.870;6.160;2023-04-06T11:42:29;15.52;;;7.50;;
4448;SDS011;2237;51.870;6.160;2023-04-06T11:44:56;14.55;;;6.55;;
4448;SDS011;2237;51.870;6.160;2023-04-06T11:47:30;13.55;;;6.38;;
4448;SDS011;2237;51.870;6.160;2023-04-06T11:50:06;14.45;;;7.05;;
4448;SDS011;2237;51.870;6.160;2023-04-06T11:52:40;11.45;;;6.30;;
4448;SDS011;2237;51.870;6.160;2023-04-06T11:55:11;13.93;;;7.15;;
4448;SDS011;2237;51.870;6.160;2023-04-06T11:57:41;10.35;;;4.80;;
4448;SDS011;2237;51.870;6.160;2023-04-06T12:00:09;12.10;;;6.70;;
4448;SDS011;2237;51.870;6.160;2023-04-06T12:02:36;13.85;;;6.60;;
4448;SDS011;2237;51.870;6.160;2023-04-06T12:05:03;9.75;;;5.55;;
4448;SDS011;2237;51.870;6.160;2023-04-06T12:07:31;10.68;;;5.90;;
4448;SDS011;2237;51.870;6.160;2023-04-06T12:09:58;15.32;;;6.97;;
4448;SDS011;2237;51.870;6.160;2023-04-06T12:12:26;15.05;;;7.70;;
4448;SDS011;2237;51.870;6.160;2023-04-06T12:14:53;16.08;;;7.22;;
4448;SDS011;2237;51.870;6.160;2023-04-06T12:17:19;11.45;;;5.40;;
4448;SDS011;2237;51.870;6.160;2023-04-06T12:19:46;10.75;;;5.72;;
4448;SDS011;2237;51.870;6.160;2023-04-06T12:22:13;8.68;;;4.53;;
4448;SDS011;2237;51.870;6.160;2023-04-06T12:24:40;10.88;;;6.13;;
4448;SDS011;2237;51.870;6.160;2023-04-06T12:27:06;11.20;;;6.13;;
4448;SDS011;2237;51.870;6.160;2023-04-06T12:29:36;9.75;;;5.15;;
4448;SDS011;2237;51.870;6.160;2023-04-06T12:32:03;15.27;;;4.60;;
4448;SDS011;2237;51.870;6.160;2023-04-06T12:34:29;10.38;;;4.70;;
4448;SDS011;2237;51.870;6.160;2023-04-06T12:36:56;9.05;;;5.10;;
4448;SDS011;2237;51.870;6.160;2023-04-06T12:39:23;9.00;;;4.45;;
4448;SDS011;2237;51.870;6.160;2023-04-06T12:41:49;11.15;;;4.43;;
4448;SDS011;2237;51.870;6.160;2023-04-06T12:44:16;9.57;;;4.72;;
4448;SDS011;2237;51.870;6.160;2023-04-06T12:46:42;11.70;;;5.68;;
4448;SDS011;2237;51.870;6.160;2023-04-06T12:49:09;8.75;;;4.10;;
4448;SDS011;2237;51.870;6.160;2023-04-06T12:51:36;9.07;;;4.30;;
4448;SDS011;2237;51.870;6.160;2023-04-06T12:54:02;8.57;;;4.32;;
4448;SDS011;2237;51.870;6.160;2023-04-06T12:56:28;8.18;;;4.25;;
4448;SDS011;2237;51.870;6.160;2023-04-06T12:58:55;5.38;;;3.15;;
4448;SDS011;2237;51.870;6.160;2023-04-06T13:01:22;8.80;;;3.88;;
4448;SDS011;2237;51.870;6.160;2023-04-06T13:03:49;8.82;;;4.47;;
4448;SDS011;2237;51.870;6.160;2023-04-06T13:06:15;5.85;;;3.10;;
4448;SDS011;2237;51.870;6.160;2023-04-06T13:08:42;7.93;;;3.58;;
4448;SDS011;2237;51.870;6.160;2023-04-06T13:11:09;8.88;;;4.05;;
4448;SDS011;2237;51.870;6.160;2023-04-06T13:13:36;7.70;;;4.22;;
4448;SDS011;2237;51.870;6.160;2023-04-06T13:16:04;7.60;;;3.97;;
4448;SDS011;2237;51.870;6.160;2023-04-06T13:18:33;8.82;;;4.10;;
4448;SDS011;2237;51.870;6.160;2023-04-06T13:21:00;7.60;;;3.55;;
4448;SDS011;2237;51.870;6.160;2023-04-06T13:23:27;8.80;;;4.38;;
4448;SDS011;2237;51.870;6.160;2023-04-06T13:26:03;9.30;;;3.97;;
4448;SDS011;2237;51.870;6.160;2023-04-06T13:28:32;9.38;;;4.40;;
4448;SDS011;2237;51.870;6.160;2023-04-06T13:30:59;6.97;;;3.53;;
4448;SDS011;2237;51.870;6.160;2023-04-06T13:33:27;8.07;;;3.78;;
4448;SDS011;2237;51.870;6.160;2023-04-06T13:35:55;10.23;;;4.15;;
4448;SDS011;2237;51.870;6.160;2023-04-06T13:38:21;7.60;;;4.30;;
4448;SDS011;2237;51.870;6.160;2023-04-06T13:40:50;10.13;;;4.32;;
4448;SDS011;2237;51.870;6.160;2023-04-06T13:43:16;10.15;;;3.97;;
4448;SDS011;2237;51.870;6.160;2023-04-06T13:45:51;8.25;;;4.22;;
4448;SDS011;2237;51.870;6.160;2023-04-06T13:48:21;9.95;;;4.35;;
4448;SDS011;2237;51.870;6.160;2023-04-06T13:50:47;8.95;;;4.60;;
4448;SDS011;2237;51.870;6.160;2023-04-06T13:53:14;8.75;;;4.93;;
4448;SDS011;2237;51.870;6.160;2023-04-06T13:55:41;8.80;;;4.43;;
4448;SDS011;2237;51.870;6.160;2023-04-06T13:58:07;8.55;;;4.43;;
4448;SDS011;2237;51.870;6.160;2023-04-06T14:00:34;9.77;;;4.82;;
4448;SDS011;2237;51.870;6.160;2023-04-06T14:03:01;9.93;;;4.45;;
4448;SDS011;2237;51.870;6.160;2023-04-06T14:05:31;9.90;;;4.68;;
4448;SDS011;2237;51.870;6.160;2023-04-06T14:07:58;10.93;;;4.60;;
4448;SDS011;2237;51.870;6.160;2023-04-06T14:10:25;8.80;;;4.45;;
4448;SDS011;2237;51.870;6.160;2023-04-06T14:12:53;6.57;;;3.85;;
4448;SDS011;2237;51.870;6.160;2023-04-06T14:15:20;11.57;;;5.00;;
4448;SDS011;2237;51.870;6.160;2023-04-06T14:17:48;9.73;;;4.35;;
4448;SDS011;2237;51.870;6.160;2023-04-06T14:20:14;8.90;;;3.90;;
4448;SDS011;2237;51.870;6.160;2023-04-06T14:22:41;10.15;;;4.55;;
4448;SDS011;2237;51.870;6.160;2023-04-06T14:25:09;10.90;;;5.00;;
4448;SDS011;2237;51.870;6.160;2023-04-06T14:27:37;11.52;;;4.93;;
4448;SDS011;2237;51.870;6.160;2023-04-06T14:30:03;10.50;;;5.15;;
4448;SDS011;2237;51.870;6.160;2023-04-06T14:32:30;9.73;;;5.20;;
4448;SDS011;2237;51.870;6.160;2023-04-06T14:34:57;9.68;;;5.25;;
4448;SDS011;2237;51.870;6.160;2023-04-06T14:37:23;10.35;;;5.53;;
4448;SDS011;2237;51.870;6.160;2023-04-06T14:39:49;11.38;;;5.95;;
4448;SDS011;2237;51.870;6.160;2023-04-06T14:42:16;9.80;;;5.30;;
4448;SDS011;2237;51.870;6.160;2023-04-06T14:44:42;13.18;;;6.13;;
4448;SDS011;2237;51.870;6.160;2023-04-06T14:47:11;11.98;;;5.22;;
4448;SDS011;2237;51.870;6.160;2023-04-06T14:49:37;11.60;;;6.20;;
4448;SDS011;2237;51.870;6.160;2023-04-06T14:52:04;10.63;;;5.30;;
4448;SDS011;2237;51.870;6.160;2023-04-06T14:54:30;12.57;;;5.25;;
4448;SDS011;2237;51.870;6.160;2023-04-06T14:56:57;11.77;;;5.40;;
4448;SDS011;2237;51.870;6.160;2023-04-06T14:59:23;9.45;;;4.75;;
4448;SDS011;2237;51.870;6.160;2023-04-06T15:01:49;10.23;;;5.47;;
4448;SDS011;2237;51.870;6.160;2023-04-06T15:04:17;10.55;;;5.57;;
4448;SDS011;2237;51.870;6.160;2023-04-06T15:06:44;15.32;;;5.90;;
4448;SDS011;2237;51.870;6.160;2023-04-06T15:09:10;11.57;;;5.85;;
4448;SDS011;2237;51.870;6.160;2023-04-06T15:11:36;10.23;;;5.55;;
4448;SDS011;2237;51.870;6.160;2023-04-06T15:14:03;13.15;;;5.68;;
4448;SDS011;2237;51.870;6.160;2023-04-06T15:16:30;9.90;;;5.28;;
4448;SDS011;2237;51.870;6.160;2023-04-06T15:18:59;11.15;;;5.32;;